首页
METAR-TAF:

METAR-TAF

机场 :

奧西耶克, 克罗地亚

纬度: 45-27N, 经度: 018-48E, 海拔: 88米

当前天气观测

该预报发布于33分钟前的19:30 UTC
风速7节,风向西转西南
温度 14°C
湿度 82%
气压 1019 hPa
能见度10公里或以上
散云层高于4000英尺

METAR: LDOS 291930Z 25007KT 9999 SCT040 14/11 Q1019

时间: 22:03 (20:03 UTC)

预报

该预报发布于2小时和38分钟前的17:25 UTC
预报有效从29日的 18点(UTC)到 30日的 18点(UTC)
风速8节,风向西转西北
能见度10公里或以上
1500米以下无云,无积雨云
几率 40% :
短暂存在
从 29日的 21点(UTC)到 30日的 12点(UTC)
少量云层高于4000英尺, 塔状积云.
多云层高于4500英尺
阵雨
几率 30% :
短暂存在
从 30日的 09点(UTC)到 30日的 11点(UTC)
能見度: 4000
少量云层高于3500英尺, 积雨云.
雷暴, 雨

TAF: LDOS 291725Z 2918/3018 30008KT CAVOK TX20/3012Z TN10/3005Z PROB40 TEMPO 2921/3012 SHRA FEW040TCU BKN045 PROB30 TEMPO 3009/3011 4000 TSRA FEW035CB

超过4000个机场的气象观测和天气预报(METAR&TAF报告)。

可查询的气象台以黄色和红色小点在地图上表示。

将鼠标移到小点上方,可查看气象台名称。

然后点击查看天气观测和预报。

如需切换地图:点击带黑十字的绿色按钮放大地图;点击带横线的绿色按钮缩小地图;或者点击绿色箭头查看邻近地区的地图。


METAR-TAF: